createdAt,value
2023-02-15T00:01:48.818Z,32.63
2023-02-15T00:04:18.167Z,28.15
2023-02-15T00:06:44.975Z,30.27
2023-02-15T00:09:12.341Z,26.48
2023-02-15T00:11:51.149Z,26.70
2023-02-15T00:14:22.792Z,26.42
2023-02-15T00:16:52.087Z,24.75
2023-02-15T00:19:21.175Z,27.20
2023-02-15T00:21:49.240Z,26.15
2023-02-15T00:24:17.844Z,27.67
2023-02-15T00:26:45.724Z,30.35
2023-02-15T00:29:14.030Z,27.00
2023-02-15T00:31:40.728Z,27.92
2023-02-15T00:34:12.811Z,29.95
2023-02-15T00:36:40.429Z,29.50
2023-02-15T00:39:07.600Z,28.83
2023-02-15T00:41:34.433Z,28.08
2023-02-15T00:44:01.341Z,24.25
2023-02-15T00:46:28.304Z,26.98
2023-02-15T00:48:54.935Z,26.33
2023-02-15T00:51:21.573Z,25.13
2023-02-15T00:53:48.691Z,24.70
2023-02-15T00:56:15.647Z,26.55
2023-02-15T00:58:42.607Z,27.95
2023-02-15T01:01:15.894Z,28.05
2023-02-15T01:03:42.713Z,28.45
2023-02-15T01:06:10.459Z,28.58
2023-02-15T01:08:37.696Z,27.27
2023-02-15T01:11:10.500Z,24.25
2023-02-15T01:13:37.224Z,24.25
2023-02-15T01:16:05.352Z,26.70
2023-02-15T01:18:32.843Z,30.45
2023-02-15T01:20:59.651Z,29.38
2023-02-15T01:23:26.492Z,33.40
2023-02-15T01:25:53.280Z,25.80
2023-02-15T01:28:19.891Z,25.52
2023-02-15T01:30:46.635Z,27.92
2023-02-15T01:33:18.809Z,25.08
2023-02-15T01:38:15.085Z,28.30
2023-02-15T01:40:41.987Z,27.40
2023-02-15T01:43:12.261Z,29.52
2023-02-15T01:45:40.104Z,27.55
2023-02-15T01:48:09.453Z,27.73
2023-02-15T01:50:42.082Z,28.25
2023-02-15T01:53:15.197Z,28.80
2023-02-15T01:55:46.608Z,29.33
2023-02-15T01:58:15.009Z,26.67
2023-02-15T02:00:42.106Z,28.23
2023-02-15T02:03:09.144Z,31.23
2023-02-15T02:05:36.040Z,29.45
2023-02-15T02:08:03.808Z,29.10
2023-02-15T02:10:30.556Z,28.08
2023-02-15T02:13:00.801Z,28.85
2023-02-15T02:15:36.479Z,26.27
2023-02-15T02:18:11.841Z,28.52
2023-02-15T02:21:13.900Z,27.27
2023-02-15T02:23:52.445Z,25.98
2023-02-15T02:26:47.912Z,26.42
2023-02-15T02:29:17.568Z,27.15
2023-02-15T02:32:13.037Z,29.08
2023-02-15T02:35:07.602Z,29.30
2023-02-15T02:38:04.482Z,29.15
2023-02-15T02:40:45.510Z,25.98
2023-02-15T02:43:33.246Z,24.35
2023-02-15T02:46:07.910Z,24.27
2023-02-15T02:48:35.732Z,24.85
2023-02-15T02:51:02.456Z,23.60
2023-02-15T02:53:31.258Z,21.60
2023-02-15T02:56:04.540Z,21.17
2023-02-15T02:58:46.073Z,24.90
2023-02-15T03:01:21.603Z,22.60
2023-02-15T03:03:50.166Z,22.83
2023-02-15T03:06:29.181Z,21.13
2023-02-15T03:09:03.098Z,24.10
2023-02-15T03:11:31.017Z,20.75
2023-02-15T03:13:58.448Z,24.27
2023-02-15T03:16:28.720Z,21.10
2023-02-15T03:19:11.258Z,23.70
2023-02-15T03:21:50.630Z,20.00
2023-02-15T03:24:22.790Z,19.88
2023-02-15T03:26:52.818Z,22.50
2023-02-15T03:29:23.298Z,20.50
2023-02-15T03:31:57.216Z,18.15
2023-02-15T03:34:24.375Z,20.10
2023-02-15T03:37:01.252Z,23.33
2023-02-15T03:39:43.096Z,20.13
2023-02-15T03:42:40.812Z,19.83
2023-02-15T03:47:42.928Z,18.52
2023-02-15T03:50:36.614Z,18.30
2023-02-15T03:53:07.306Z,18.40
2023-02-15T03:55:35.624Z,17.50
2023-02-15T03:58:20.973Z,19.00
2023-02-15T04:01:14.093Z,18.20
2023-02-15T04:03:45.769Z,19.48
2023-02-15T04:06:12.372Z,21.25
2023-02-15T04:08:57.832Z,23.40
2023-02-15T04:11:24.498Z,21.55
2023-02-15T04:13:57.388Z,16.25
2023-02-15T04:16:25.193Z,18.27
2023-02-15T04:19:11.007Z,18.70
2023-02-15T04:21:56.245Z,17.63
2023-02-15T04:24:41.559Z,19.75
2023-02-15T04:27:08.293Z,17.77
2023-02-15T04:29:35.022Z,17.25
2023-02-15T04:32:03.168Z,18.45
2023-02-15T04:34:30.003Z,16.67
2023-02-15T04:36:56.640Z,19.13
2023-02-15T04:39:23.326Z,18.63
2023-02-15T04:41:49.945Z,17.05
2023-02-15T04:44:16.877Z,18.88
2023-02-15T04:46:43.593Z,17.83
2023-02-15T04:49:10.589Z,17.98
2023-02-15T04:51:37.623Z,15.63
2023-02-15T04:54:04.589Z,17.70
2023-02-15T04:56:32.248Z,23.33
2023-02-15T04:58:58.982Z,16.23
2023-02-15T05:01:25.712Z,21.40
2023-02-15T05:03:52.413Z,25.10
2023-02-15T05:06:19.126Z,22.90
2023-02-15T05:08:45.773Z,19.02
2023-02-15T05:11:12.498Z,18.85
2023-02-15T05:13:39.150Z,22.65
2023-02-15T05:16:05.986Z,24.70
2023-02-15T05:18:32.864Z,36.05
2023-02-15T05:20:59.502Z,46.17
2023-02-15T05:23:26.193Z,39.60
2023-02-15T05:26:11.831Z,40.20
2023-02-15T05:28:39.190Z,41.60
2023-02-15T05:31:16.493Z,53.15
2023-02-15T05:33:44.338Z,45.38
2023-02-15T05:36:11.758Z,54.33
2023-02-15T05:38:39.157Z,55.20
2023-02-15T05:41:06.926Z,55.50
2023-02-15T05:43:34.188Z,45.17
2023-02-15T05:46:01.713Z,41.45
2023-02-15T05:48:28.764Z,53.97
2023-02-15T05:51:10.076Z,43.72
2023-02-15T05:53:39.122Z,58.40
2023-02-15T05:56:07.703Z,49.90
2023-02-15T05:58:37.818Z,54.78
2023-02-15T06:01:19.198Z,47.92
2023-02-15T06:03:46.958Z,49.83
2023-02-15T06:06:14.105Z,55.42
2023-02-15T06:08:41.703Z,56.30
2023-02-15T06:11:08.619Z,53.13
2023-02-15T06:13:38.567Z,54.58
2023-02-15T06:16:06.929Z,48.85
2023-02-15T06:18:33.823Z,51.88
2023-02-15T06:21:01.061Z,42.92
2023-02-15T06:23:27.727Z,50.85
2023-02-15T06:25:54.430Z,50.03
2023-02-15T06:28:21.315Z,52.45
2023-02-15T06:30:48.121Z,54.80
2023-02-15T06:33:14.867Z,46.45
2023-02-15T06:35:41.651Z,50.35
2023-02-15T06:38:08.307Z,48.78
2023-02-15T06:40:34.915Z,51.83
2023-02-15T06:43:01.627Z,35.72
2023-02-15T06:45:28.402Z,41.75
2023-02-15T06:47:55.036Z,45.22
2023-02-15T06:50:21.675Z,39.03
2023-02-15T06:52:48.419Z,50.70
2023-02-15T06:55:15.116Z,41.63
2023-02-15T06:57:41.770Z,47.63
2023-02-15T07:00:09.293Z,50.42
2023-02-15T07:02:35.996Z,56.72
2023-02-15T07:05:02.971Z,51.88
2023-02-15T07:07:29.665Z,51.28
2023-02-15T07:09:56.286Z,44.38
2023-02-15T07:12:41.761Z,45.40
2023-02-15T07:15:16.691Z,36.47
2023-02-15T07:17:43.956Z,33.55
2023-02-15T07:20:22.563Z,36.80
2023-02-15T07:22:50.251Z,36.20
2023-02-15T07:25:17.365Z,34.28
2023-02-15T07:27:45.797Z,39.15
2023-02-15T07:30:16.548Z,30.73
2023-02-15T07:33:04.820Z,39.53
2023-02-15T07:35:32.428Z,32.42
2023-02-15T07:37:59.064Z,40.58
2023-02-15T07:40:26.162Z,52.95
2023-02-15T07:42:55.634Z,36.13
2023-02-15T07:45:22.781Z,43.53
2023-02-15T07:47:49.480Z,32.55
2023-02-15T07:50:16.216Z,48.30
2023-02-15T07:52:42.865Z,45.60
2023-02-15T07:55:09.964Z,43.45
2023-02-15T07:57:36.699Z,51.03
2023-02-15T08:00:04.486Z,42.50
2023-02-15T08:02:31.419Z,47.50
2023-02-15T08:04:58.186Z,55.60
2023-02-15T08:07:24.843Z,40.38
2023-02-15T08:09:51.562Z,45.00
2023-02-15T08:12:18.192Z,28.73
2023-02-15T08:14:44.866Z,54.72
2023-02-15T08:17:11.523Z,42.05
2023-02-15T08:19:38.366Z,41.60
2023-02-15T08:22:08.149Z,45.42
2023-02-15T08:24:38.505Z,39.40
2023-02-15T08:27:06.576Z,41.42
2023-02-15T08:29:34.087Z,47.47
2023-02-15T08:32:06.634Z,40.05
2023-02-15T08:37:01.818Z,42.08
2023-02-15T08:39:28.485Z,41.05
2023-02-15T08:41:55.513Z,39.53
2023-02-15T08:44:22.277Z,36.10
2023-02-15T08:46:50.644Z,45.83
2023-02-15T08:49:20.344Z,45.80
2023-02-15T08:51:47.919Z,38.78
2023-02-15T08:54:17.479Z,43.53
2023-02-15T08:56:46.454Z,36.72
2023-02-15T08:59:17.368Z,47.92
2023-02-15T09:01:45.472Z,38.90
2023-02-15T09:04:14.017Z,50.13
2023-02-15T09:06:42.731Z,43.33
2023-02-15T09:09:09.837Z,49.08
2023-02-15T09:11:38.918Z,51.95
2023-02-15T09:14:17.874Z,51.75
2023-02-15T09:16:50.438Z,43.58
2023-02-15T09:19:19.121Z,35.83
2023-02-15T09:21:46.245Z,59.47
2023-02-15T09:24:15.114Z,49.97
2023-02-15T09:26:44.059Z,27.33
2023-02-15T09:29:12.432Z,47.35
2023-02-15T09:31:47.307Z,49.50
2023-02-15T09:34:17.052Z,47.13
2023-02-15T09:36:43.920Z,49.88
2023-02-15T09:39:10.695Z,57.03
2023-02-15T09:41:56.038Z,48.45
2023-02-15T09:44:25.549Z,43.13
2023-02-15T09:47:14.143Z,54.38
2023-02-15T09:50:18.494Z,27.13
2023-02-15T09:52:51.304Z,49.17
2023-02-15T09:55:20.495Z,64.57
2023-02-15T09:58:11.497Z,46.35
2023-02-15T10:00:56.885Z,51.90
2023-02-15T10:03:29.134Z,48.72
2023-02-15T10:06:02.438Z,32.35
2023-02-15T10:08:29.023Z,41.53
2023-02-15T10:10:55.596Z,46.88
2023-02-15T10:13:38.132Z,57.38
2023-02-15T10:16:27.795Z,31.35
2023-02-15T10:19:08.724Z,38.20
2023-02-15T10:21:51.545Z,41.90
2023-02-15T10:24:40.564Z,38.17
2023-02-15T10:27:18.915Z,42.95
2023-02-15T10:30:14.297Z,47.20
2023-02-15T10:33:02.319Z,46.28
2023-02-15T10:35:55.847Z,25.75
2023-02-15T10:38:43.713Z,39.63
2023-02-15T10:41:26.562Z,44.78
2023-02-15T10:44:12.572Z,48.33
2023-02-15T10:46:52.401Z,42.10
2023-02-15T10:49:31.283Z,42.20
2023-02-15T10:52:31.096Z,43.88
2023-02-15T10:55:11.245Z,54.55
2023-02-15T10:57:56.296Z,52.45
2023-02-15T11:03:01.454Z,47.83
2023-02-15T11:08:17.820Z,41.88
2023-02-15T11:10:53.209Z,43.45
2023-02-15T11:13:22.011Z,48.38
2023-02-15T11:15:55.230Z,44.95
2023-02-15T11:18:40.232Z,38.20
2023-02-15T11:23:46.256Z,34.53
2023-02-15T11:26:18.385Z,47.42
2023-02-15T11:28:52.206Z,39.35
2023-02-15T11:31:22.804Z,31.58
2023-02-15T11:33:54.830Z,42.90
2023-02-15T11:36:26.711Z,34.83
2023-02-15T11:39:03.604Z,38.20
2023-02-15T11:41:34.915Z,38.33
2023-02-15T11:44:07.244Z,43.75
2023-02-15T11:49:00.709Z,46.58
2023-02-15T11:51:29.842Z,26.25
2023-02-15T11:53:57.453Z,26.60
2023-02-15T11:56:26.136Z,28.23
2023-02-15T11:59:01.020Z,33.33
2023-02-15T12:01:37.846Z,38.92
2023-02-15T12:04:21.654Z,38.75
2023-02-15T12:07:03.978Z,42.63
2023-02-15T12:09:38.330Z,37.55
2023-02-15T12:12:27.689Z,35.55
2023-02-15T12:14:56.926Z,36.20
2023-02-15T12:17:29.861Z,37.08
2023-02-15T12:20:00.366Z,43.60
2023-02-15T12:22:30.640Z,26.38
2023-02-15T12:25:00.640Z,42.72
2023-02-15T12:27:35.832Z,46.13
2023-02-15T12:30:17.751Z,30.27
2023-02-15T12:32:52.542Z,36.22
2023-02-15T12:35:38.853Z,22.17
2023-02-15T12:38:11.303Z,44.03
2023-02-15T12:40:39.458Z,36.35
2023-02-15T12:43:09.879Z,39.25
2023-02-15T12:45:38.570Z,29.00
2023-02-15T12:48:15.182Z,33.78
2023-02-15T12:50:43.506Z,31.85
2023-02-15T12:53:34.881Z,30.48
2023-02-15T12:56:04.005Z,24.67
2023-02-15T12:58:35.586Z,34.08
2023-02-15T13:01:25.647Z,34.65
2023-02-15T13:04:06.862Z,33.92
2023-02-15T13:06:36.322Z,33.58
2023-02-15T13:09:18.199Z,29.85
2023-02-15T13:11:46.006Z,30.38
2023-02-15T13:14:22.882Z,30.40
2023-02-15T13:16:53.127Z,26.10
2023-02-15T13:19:51.111Z,17.27
2023-02-15T13:22:26.841Z,26.35
2023-02-15T13:25:00.335Z,35.22
2023-02-15T13:27:39.883Z,26.30
2023-02-15T13:30:19.899Z,25.38
2023-02-15T13:32:49.635Z,27.35
2023-02-15T13:35:17.965Z,28.40
2023-02-15T13:38:09.572Z,28.95
2023-02-15T13:40:36.316Z,28.10
2023-02-15T13:43:40.716Z,23.25
2023-02-15T13:46:19.490Z,29.25
2023-02-15T13:48:51.031Z,28.92
2023-02-15T13:51:29.308Z,22.00
2023-02-15T13:54:18.788Z,29.40
2023-02-15T13:57:22.394Z,31.17
2023-02-15T14:00:10.647Z,19.15
2023-02-15T14:02:52.418Z,25.85
2023-02-15T14:05:31.906Z,24.13
2023-02-15T14:08:36.942Z,26.90
2023-02-15T14:11:18.256Z,26.30
2023-02-15T14:14:26.781Z,29.23
2023-02-15T14:17:18.465Z,24.48
2023-02-15T14:19:55.334Z,26.80
2023-02-15T14:22:32.717Z,27.83
2023-02-15T14:25:41.501Z,41.05
2023-02-15T14:28:24.543Z,25.75
2023-02-15T14:30:52.267Z,32.95
2023-02-15T14:33:36.046Z,25.17
2023-02-15T14:36:07.307Z,29.38
2023-02-15T14:38:58.082Z,31.77
2023-02-15T14:41:36.554Z,22.88
2023-02-15T14:47:06.988Z,26.35
2023-02-15T14:49:38.121Z,31.02
2023-02-15T14:52:09.630Z,27.27
2023-02-15T14:54:36.211Z,33.88
2023-02-15T14:57:02.753Z,36.17
2023-02-15T14:59:41.429Z,36.13
2023-02-15T15:02:07.995Z,26.27
2023-02-15T15:04:54.331Z,36.33
2023-02-15T15:07:45.989Z,28.27
2023-02-15T15:10:18.740Z,33.75
2023-02-15T15:12:49.993Z,34.33
2023-02-15T15:15:28.908Z,36.42
2023-02-15T15:17:57.232Z,32.50
2023-02-15T15:20:27.158Z,33.85
2023-02-15T15:23:15.599Z,37.50
2023-02-15T15:25:56.062Z,36.22
2023-02-15T15:28:34.929Z,33.42
2023-02-15T15:31:29.114Z,43.22
2023-02-15T15:34:24.678Z,23.13
2023-02-15T15:37:24.533Z,38.83
2023-02-15T15:39:56.944Z,46.58
2023-02-15T15:43:03.507Z,37.60
2023-02-15T15:46:23.728Z,42.90
2023-02-15T15:48:50.451Z,32.35
2023-02-15T15:51:32.276Z,24.40
2023-02-15T15:53:59.029Z,41.72
2023-02-15T15:56:30.947Z,39.67
2023-02-15T15:59:02.191Z,36.15
2023-02-15T16:01:31.335Z,41.40
2023-02-15T16:04:00.165Z,37.05
2023-02-15T16:06:32.589Z,34.03
2023-02-15T16:09:16.585Z,28.25
2023-02-15T16:11:44.143Z,49.92
2023-02-15T16:14:17.121Z,34.80
2023-02-15T16:16:51.559Z,39.88
2023-02-15T16:19:23.118Z,31.23
2023-02-15T16:21:50.516Z,46.72
2023-02-15T16:24:38.238Z,41.00
2023-02-15T16:27:33.841Z,42.83
2023-02-15T16:30:20.078Z,38.00
2023-02-15T16:32:46.835Z,31.55
2023-02-15T16:35:19.814Z,37.92
2023-02-15T16:37:47.082Z,45.83
2023-02-15T16:40:40.282Z,42.25
2023-02-15T16:43:13.197Z,39.38
2023-02-15T16:45:39.958Z,38.70
2023-02-15T16:48:12.863Z,33.70
2023-02-15T16:50:40.025Z,30.88
2023-02-15T16:53:14.858Z,40.20
2023-02-15T16:55:43.459Z,35.60
2023-02-15T16:58:16.581Z,30.60
2023-02-15T17:00:43.665Z,40.83
2023-02-15T17:03:12.962Z,38.63
2023-02-15T17:05:55.127Z,40.85
2023-02-15T17:08:35.200Z,36.00
2023-02-15T17:11:16.009Z,35.67
2023-02-15T17:14:07.797Z,37.78
2023-02-15T17:16:53.580Z,31.77
2023-02-15T17:19:29.564Z,27.80
2023-02-15T17:21:59.337Z,34.60
2023-02-15T17:24:25.980Z,35.63
2023-02-15T17:27:01.491Z,36.20
2023-02-15T17:29:39.746Z,32.75
2023-02-15T17:32:19.026Z,39.75
2023-02-15T17:35:00.147Z,36.90
2023-02-15T17:37:38.506Z,38.00
2023-02-15T17:40:35.156Z,36.30
2023-02-15T17:43:02.984Z,40.72
2023-02-15T17:45:41.043Z,40.30
2023-02-15T17:48:16.630Z,40.15
2023-02-15T17:50:43.441Z,34.35
2023-02-15T17:53:10.672Z,31.95
2023-02-15T17:55:40.242Z,39.92
2023-02-15T17:58:10.662Z,46.17
2023-02-15T18:01:00.078Z,42.70
2023-02-15T18:03:57.117Z,43.88
2023-02-15T18:06:42.569Z,44.28
2023-02-15T18:09:32.548Z,38.10
2023-02-15T18:11:59.377Z,40.88
2023-02-15T18:14:26.347Z,29.20
2023-02-15T18:16:54.912Z,31.15
2023-02-15T18:19:24.431Z,29.60
2023-02-15T18:21:53.016Z,36.85
2023-02-15T18:24:22.036Z,37.75
2023-02-15T18:26:49.136Z,33.00
2023-02-15T18:29:16.195Z,39.13
2023-02-15T18:31:45.826Z,42.92
2023-02-15T18:34:40.192Z,40.58
2023-02-15T18:37:13.587Z,42.28
2023-02-15T18:39:45.647Z,38.65
2023-02-15T18:42:36.781Z,30.10
2023-02-15T18:45:18.957Z,43.85
2023-02-15T18:47:46.686Z,33.33
2023-02-15T18:50:15.725Z,31.42
2023-02-15T18:52:45.082Z,43.15
2023-02-15T18:55:21.987Z,46.65
2023-02-15T18:57:50.921Z,39.80
2023-02-15T19:00:28.392Z,35.63
2023-02-15T19:02:56.249Z,38.03
2023-02-15T19:05:24.024Z,46.85
2023-02-15T19:07:51.419Z,33.60
2023-02-15T19:10:24.920Z,45.80
2023-02-15T19:12:53.056Z,26.00
2023-02-15T19:15:30.700Z,41.75
2023-02-15T19:17:57.356Z,41.30
2023-02-15T19:20:27.820Z,46.83
2023-02-15T19:22:58.292Z,27.25
2023-02-15T19:25:30.668Z,44.50
2023-02-15T19:27:58.156Z,42.75
2023-02-15T19:30:28.697Z,36.28
2023-02-15T19:32:56.758Z,44.80
2023-02-15T19:35:26.639Z,43.92
2023-02-15T19:37:57.758Z,42.58
2023-02-15T19:40:43.734Z,42.13
2023-02-15T19:43:16.910Z,39.90
2023-02-15T19:45:43.665Z,37.40
2023-02-15T19:48:13.978Z,48.25
2023-02-15T19:50:43.696Z,38.30
2023-02-15T19:53:22.314Z,36.05
2023-02-15T19:58:19.191Z,36.22
2023-02-15T20:00:53.713Z,45.75
2023-02-15T20:03:20.653Z,37.15
2023-02-15T20:05:47.304Z,44.35
2023-02-15T20:08:20.314Z,35.13
2023-02-15T20:10:47.474Z,40.67
2023-02-15T20:13:18.864Z,49.75
2023-02-15T20:15:46.308Z,46.58
2023-02-15T20:18:13.067Z,46.80
2023-02-15T20:20:46.266Z,38.22
2023-02-15T20:23:30.676Z,34.10
2023-02-15T20:28:29.254Z,43.47
2023-02-15T20:30:56.232Z,36.75
2023-02-15T20:33:23.741Z,37.00
2023-02-15T20:35:51.270Z,49.17
2023-02-15T20:38:21.163Z,47.13
2023-02-15T20:41:06.925Z,48.50
2023-02-15T20:43:34.178Z,36.58
2023-02-15T20:46:01.316Z,43.28
2023-02-15T20:48:28.219Z,38.47
2023-02-15T20:50:55.574Z,37.55
2023-02-15T20:53:22.673Z,43.78
2023-02-15T20:55:49.286Z,47.88
2023-02-15T20:58:24.809Z,42.10
2023-02-15T21:00:52.160Z,43.67
2023-02-15T21:03:22.375Z,42.10
2023-02-15T21:05:49.780Z,47.88
2023-02-15T21:08:19.453Z,35.33
2023-02-15T21:10:48.451Z,42.90
2023-02-15T21:13:34.377Z,38.90
2023-02-15T21:16:02.166Z,37.90
2023-02-15T21:18:31.413Z,36.85
2023-02-15T21:21:00.782Z,39.75
2023-02-15T21:23:32.092Z,43.75
2023-02-15T21:25:58.997Z,54.08
2023-02-15T21:28:27.644Z,40.63
2023-02-15T21:30:57.791Z,35.20
2023-02-15T21:33:25.727Z,50.65
2023-02-15T21:35:54.760Z,45.25
2023-02-15T21:38:30.900Z,32.42
2023-02-15T21:41:17.539Z,49.75
2023-02-15T21:44:02.615Z,45.78
2023-02-15T21:46:47.793Z,43.80
2023-02-15T21:49:14.462Z,46.88
2023-02-15T21:51:59.578Z,39.55
2023-02-15T21:54:26.652Z,48.67
2023-02-15T21:56:54.106Z,47.30
2023-02-15T21:59:20.690Z,44.70
2023-02-15T22:01:49.539Z,39.78
2023-02-15T22:04:24.823Z,49.33
2023-02-15T22:06:51.536Z,49.42
2023-02-15T22:09:23.659Z,38.33
2023-02-15T22:11:51.850Z,44.33
2023-02-15T22:14:27.385Z,44.40
2023-02-15T22:16:54.020Z,48.03
2023-02-15T22:19:20.651Z,32.53
2023-02-15T22:21:47.303Z,50.33
2023-02-15T22:24:13.930Z,39.83
2023-02-15T22:26:40.564Z,27.92
2023-02-15T22:29:07.303Z,36.65
2023-02-15T22:31:34.099Z,25.42
2023-02-15T22:34:00.849Z,30.55
2023-02-15T22:36:31.116Z,38.78
2023-02-15T22:38:58.419Z,55.78
2023-02-15T22:41:29.169Z,47.85
2023-02-15T22:43:56.811Z,48.78
2023-02-15T22:46:24.984Z,55.17
2023-02-15T22:48:52.260Z,51.63
2023-02-15T22:51:24.200Z,49.60
2023-02-15T22:53:54.230Z,55.40
2023-02-15T22:56:43.838Z,35.35
2023-02-15T22:59:36.263Z,43.88
2023-02-15T23:02:03.456Z,46.72
2023-02-15T23:04:32.460Z,41.70
2023-02-15T23:07:00.996Z,41.95
2023-02-15T23:09:27.652Z,45.15
2023-02-15T23:11:54.723Z,44.28
2023-02-15T23:14:31.350Z,45.55
2023-02-15T23:16:58.080Z,44.17
2023-02-15T23:19:24.764Z,49.40
2023-02-15T23:21:53.355Z,49.67
2023-02-15T23:24:22.136Z,45.85
2023-02-15T23:26:50.606Z,44.05
2023-02-15T23:29:20.635Z,43.15
2023-02-15T23:31:50.825Z,40.45
2023-02-15T23:34:26.144Z,40.50
2023-02-15T23:36:52.966Z,43.35
2023-02-15T23:39:44.422Z,40.28
2023-02-15T23:42:18.113Z,46.75
2023-02-15T23:44:46.360Z,44.45
2023-02-15T23:48:01.040Z,42.53
2023-02-15T23:50:29.785Z,33.28
2023-02-15T23:52:57.261Z,38.38
2023-02-15T23:55:28.592Z,36.17
2023-02-15T23:57:55.245Z,45.05
